sensor_id;sensor_type;location;lat;lon;timestamp;P1;durP1;ratioP1;P2;durP2;ratioP2
26908;SDS011;14477;51.038;4.588;2023-05-07T00:01:59;2.88;;;1.90;;
26908;SDS011;14477;51.038;4.588;2023-05-07T00:04:26;2.87;;;2.00;;
26908;SDS011;14477;51.038;4.588;2023-05-07T00:06:53;2.80;;;2.10;;
26908;SDS011;14477;51.038;4.588;2023-05-07T00:09:18;2.72;;;2.10;;
26908;SDS011;14477;51.038;4.588;2023-05-07T00:11:44;3.53;;;1.87;;
26908;SDS011;14477;51.038;4.588;2023-05-07T00:14:10;4.55;;;2.35;;
26908;SDS011;14477;51.038;4.588;2023-05-07T00:16:36;3.70;;;2.40;;
26908;SDS011;14477;51.038;4.588;2023-05-07T00:19:02;3.60;;;2.20;;
26908;SDS011;14477;51.038;4.588;2023-05-07T00:21:27;3.50;;;2.00;;
26908;SDS011;14477;51.038;4.588;2023-05-07T00:23:53;3.50;;;2.03;;
26908;SDS011;14477;51.038;4.588;2023-05-07T00:26:19;3.05;;;2.40;;
26908;SDS011;14477;51.038;4.588;2023-05-07T00:28:45;3.58;;;2.25;;
26908;SDS011;14477;51.038;4.588;2023-05-07T00:31:11;3.10;;;2.17;;
26908;SDS011;14477;51.038;4.588;2023-05-07T00:33:37;3.10;;;2.08;;
26908;SDS011;14477;51.038;4.588;2023-05-07T00:36:03;4.10;;;2.17;;
26908;SDS011;14477;51.038;4.588;2023-05-07T00:38:29;3.55;;;2.33;;
26908;SDS011;14477;51.038;4.588;2023-05-07T00:40:55;3.45;;;2.47;;
26908;SDS011;14477;51.038;4.588;2023-05-07T00:43:21;3.70;;;2.30;;
26908;SDS011;14477;51.038;4.588;2023-05-07T00:45:46;3.17;;;2.33;;
26908;SDS011;14477;51.038;4.588;2023-05-07T00:48:12;3.87;;;2.30;;
26908;SDS011;14477;51.038;4.588;2023-05-07T00:50:39;3.60;;;2.47;;
26908;SDS011;14477;51.038;4.588;2023-05-07T00:53:04;4.05;;;2.45;;
26908;SDS011;14477;51.038;4.588;2023-05-07T00:55:32;4.88;;;2.55;;
26908;SDS011;14477;51.038;4.588;2023-05-07T00:57:58;3.10;;;2.30;;
26908;SDS011;14477;51.038;4.588;2023-05-07T01:00:24;3.42;;;2.30;;
26908;SDS011;14477;51.038;4.588;2023-05-07T01:02:50;3.42;;;2.33;;
26908;SDS011;14477;51.038;4.588;2023-05-07T01:05:17;3.00;;;2.30;;
26908;SDS011;14477;51.038;4.588;2023-05-07T01:07:45;5.00;;;2.42;;
26908;SDS011;14477;51.038;4.588;2023-05-07T01:10:12;3.10;;;2.33;;
26908;SDS011;14477;51.038;4.588;2023-05-07T01:12:38;3.58;;;2.70;;
26908;SDS011;14477;51.038;4.588;2023-05-07T01:15:06;4.90;;;2.53;;
26908;SDS011;14477;51.038;4.588;2023-05-07T01:17:40;3.75;;;2.50;;
26908;SDS011;14477;51.038;4.588;2023-05-07T01:20:07;4.10;;;2.60;;
26908;SDS011;14477;51.038;4.588;2023-05-07T01:22:35;4.00;;;2.67;;
26908;SDS011;14477;51.038;4.588;2023-05-07T01:25:05;3.78;;;2.90;;
26908;SDS011;14477;51.038;4.588;2023-05-07T01:27:35;3.90;;;2.50;;
26908;SDS011;14477;51.038;4.588;2023-05-07T01:30:03;4.72;;;2.65;;
26908;SDS011;14477;51.038;4.588;2023-05-07T01:33:04;4.00;;;2.70;;
26908;SDS011;14477;51.038;4.588;2023-05-07T01:35:24;3.63;;;2.55;;
26908;SDS011;14477;51.038;4.588;2023-05-07T01:37:53;4.10;;;2.60;;
26908;SDS011;14477;51.038;4.588;2023-05-07T01:40:20;4.43;;;2.67;;
26908;SDS011;14477;51.038;4.588;2023-05-07T01:42:46;3.70;;;2.53;;
26908;SDS011;14477;51.038;4.588;2023-05-07T01:45:13;3.85;;;2.60;;
26908;SDS011;14477;51.038;4.588;2023-05-07T01:47:39;3.63;;;2.70;;
26908;SDS011;14477;51.038;4.588;2023-05-07T01:50:06;4.47;;;3.22;;
26908;SDS011;14477;51.038;4.588;2023-05-07T01:52:39;4.23;;;3.17;;
26908;SDS011;14477;51.038;4.588;2023-05-07T01:55:05;4.13;;;2.67;;
26908;SDS011;14477;51.038;4.588;2023-05-07T01:57:32;4.95;;;3.03;;
26908;SDS011;14477;51.038;4.588;2023-05-07T01:59:57;3.75;;;2.67;;
26908;SDS011;14477;51.038;4.588;2023-05-07T02:02:23;4.40;;;2.80;;
26908;SDS011;14477;51.038;4.588;2023-05-07T02:04:49;4.43;;;2.47;;
26908;SDS011;14477;51.038;4.588;2023-05-07T02:07:15;3.30;;;3.00;;
26908;SDS011;14477;51.038;4.588;2023-05-07T02:09:41;3.70;;;2.88;;
26908;SDS011;14477;51.038;4.588;2023-05-07T02:12:07;4.10;;;2.87;;
26908;SDS011;14477;51.038;4.588;2023-05-07T02:14:33;4.15;;;2.67;;
26908;SDS011;14477;51.038;4.588;2023-05-07T02:16:59;3.67;;;2.77;;
26908;SDS011;14477;51.038;4.588;2023-05-07T02:19:24;3.60;;;2.67;;
26908;SDS011;14477;51.038;4.588;2023-05-07T02:21:50;2.90;;;2.60;;
26908;SDS011;14477;51.038;4.588;2023-05-07T02:24:16;4.20;;;2.88;;
26908;SDS011;14477;51.038;4.588;2023-05-07T02:26:42;6.57;;;2.70;;
26908;SDS011;14477;51.038;4.588;2023-05-07T02:29:07;3.90;;;2.78;;
26908;SDS011;14477;51.038;4.588;2023-05-07T02:31:33;3.97;;;2.97;;
26908;SDS011;14477;51.038;4.588;2023-05-07T02:33:59;4.30;;;2.92;;
26908;SDS011;14477;51.038;4.588;2023-05-07T02:36:25;4.25;;;2.88;;
26908;SDS011;14477;51.038;4.588;2023-05-07T02:38:54;4.13;;;2.77;;
26908;SDS011;14477;51.038;4.588;2023-05-07T02:41:20;3.10;;;2.70;;
26908;SDS011;14477;51.038;4.588;2023-05-07T02:43:46;3.80;;;2.90;;
26908;SDS011;14477;51.038;4.588;2023-05-07T02:46:12;4.70;;;3.10;;
26908;SDS011;14477;51.038;4.588;2023-05-07T02:48:37;4.30;;;2.85;;
26908;SDS011;14477;51.038;4.588;2023-05-07T02:51:03;4.93;;;3.13;;
26908;SDS011;14477;51.038;4.588;2023-05-07T02:53:30;4.47;;;3.20;;
26908;SDS011;14477;51.038;4.588;2023-05-07T02:55:57;3.50;;;2.60;;
26908;SDS011;14477;51.038;4.588;2023-05-07T02:58:24;4.28;;;3.03;;
26908;SDS011;14477;51.038;4.588;2023-05-07T03:00:50;3.70;;;2.58;;
26908;SDS011;14477;51.038;4.588;2023-05-07T03:03:16;3.77;;;2.77;;
26908;SDS011;14477;51.038;4.588;2023-05-07T03:05:42;4.18;;;2.83;;
26908;SDS011;14477;51.038;4.588;2023-05-07T03:08:08;3.80;;;2.78;;
26908;SDS011;14477;51.038;4.588;2023-05-07T03:10:36;4.47;;;2.80;;
26908;SDS011;14477;51.038;4.588;2023-05-07T03:13:03;4.43;;;3.10;;
26908;SDS011;14477;51.038;4.588;2023-05-07T03:15:28;4.85;;;2.92;;
26908;SDS011;14477;51.038;4.588;2023-05-07T03:17:54;5.43;;;2.78;;
26908;SDS011;14477;51.038;4.588;2023-05-07T03:20:20;3.83;;;2.90;;
26908;SDS011;14477;51.038;4.588;2023-05-07T03:22:46;3.55;;;2.85;;
26908;SDS011;14477;51.038;4.588;2023-05-07T03:25:12;3.33;;;2.70;;
26908;SDS011;14477;51.038;4.588;2023-05-07T03:27:39;3.50;;;2.85;;
26908;SDS011;14477;51.038;4.588;2023-05-07T03:30:07;4.03;;;2.90;;
26908;SDS011;14477;51.038;4.588;2023-05-07T03:32:34;4.05;;;2.75;;
26908;SDS011;14477;51.038;4.588;2023-05-07T03:35:00;3.78;;;2.85;;
26908;SDS011;14477;51.038;4.588;2023-05-07T03:37:26;3.67;;;2.85;;
26908;SDS011;14477;51.038;4.588;2023-05-07T03:39:52;4.87;;;3.10;;
26908;SDS011;14477;51.038;4.588;2023-05-07T03:42:18;3.67;;;2.95;;
26908;SDS011;14477;51.038;4.588;2023-05-07T03:44:44;4.18;;;3.00;;
26908;SDS011;14477;51.038;4.588;2023-05-07T03:47:09;5.17;;;2.93;;
26908;SDS011;14477;51.038;4.588;2023-05-07T03:49:35;3.80;;;2.83;;
26908;SDS011;14477;51.038;4.588;2023-05-07T03:52:01;5.28;;;3.00;;
26908;SDS011;14477;51.038;4.588;2023-05-07T03:54:27;3.40;;;2.70;;
26908;SDS011;14477;51.038;4.588;2023-05-07T03:56:53;4.20;;;2.85;;
26908;SDS011;14477;51.038;4.588;2023-05-07T03:59:19;4.00;;;2.80;;
26908;SDS011;14477;51.038;4.588;2023-05-07T04:01:45;5.28;;;3.17;;
26908;SDS011;14477;51.038;4.588;2023-05-07T04:04:11;4.10;;;2.77;;
26908;SDS011;14477;51.038;4.588;2023-05-07T04:06:37;4.25;;;2.97;;
26908;SDS011;14477;51.038;4.588;2023-05-07T04:09:02;4.50;;;3.00;;
26908;SDS011;14477;51.038;4.588;2023-05-07T04:11:28;4.27;;;3.00;;
26908;SDS011;14477;51.038;4.588;2023-05-07T04:13:54;3.83;;;2.90;;
26908;SDS011;14477;51.038;4.588;2023-05-07T04:16:20;3.77;;;3.10;;
26908;SDS011;14477;51.038;4.588;2023-05-07T04:18:45;4.03;;;3.05;;
26908;SDS011;14477;51.038;4.588;2023-05-07T04:21:15;4.83;;;2.93;;
26908;SDS011;14477;51.038;4.588;2023-05-07T04:23:41;3.90;;;3.03;;
26908;SDS011;14477;51.038;4.588;2023-05-07T04:26:07;3.88;;;2.95;;
26908;SDS011;14477;51.038;4.588;2023-05-07T04:28:33;4.40;;;2.83;;
26908;SDS011;14477;51.038;4.588;2023-05-07T04:30:59;3.60;;;2.88;;
26908;SDS011;14477;51.038;4.588;2023-05-07T04:33:25;4.00;;;2.88;;
26908;SDS011;14477;51.038;4.588;2023-05-07T04:35:51;4.93;;;3.00;;
26908;SDS011;14477;51.038;4.588;2023-05-07T04:38:17;3.58;;;3.00;;
26908;SDS011;14477;51.038;4.588;2023-05-07T04:40:43;5.05;;;3.08;;
26908;SDS011;14477;51.038;4.588;2023-05-07T04:43:10;4.88;;;2.95;;
26908;SDS011;14477;51.038;4.588;2023-05-07T04:45:36;3.90;;;3.10;;
26908;SDS011;14477;51.038;4.588;2023-05-07T04:48:02;4.00;;;3.05;;
26908;SDS011;14477;51.038;4.588;2023-05-07T04:50:27;4.10;;;2.95;;
26908;SDS011;14477;51.038;4.588;2023-05-07T04:52:53;4.33;;;3.07;;
26908;SDS011;14477;51.038;4.588;2023-05-07T04:55:19;3.72;;;2.90;;
26908;SDS011;14477;51.038;4.588;2023-05-07T04:57:45;4.18;;;3.20;;
26908;SDS011;14477;51.038;4.588;2023-05-07T05:00:11;4.33;;;3.10;;
26908;SDS011;14477;51.038;4.588;2023-05-07T05:02:39;4.20;;;3.00;;
26908;SDS011;14477;51.038;4.588;2023-05-07T05:05:06;4.28;;;2.97;;
26908;SDS011;14477;51.038;4.588;2023-05-07T05:07:32;4.38;;;2.90;;
26908;SDS011;14477;51.038;4.588;2023-05-07T05:09:58;3.97;;;3.00;;
26908;SDS011;14477;51.038;4.588;2023-05-07T05:12:24;3.33;;;2.70;;
26908;SDS011;14477;51.038;4.588;2023-05-07T05:14:50;4.22;;;3.22;;
26908;SDS011;14477;51.038;4.588;2023-05-07T05:17:16;4.33;;;2.80;;
26908;SDS011;14477;51.038;4.588;2023-05-07T05:19:42;4.10;;;3.05;;
26908;SDS011;14477;51.038;4.588;2023-05-07T05:22:07;3.92;;;3.03;;
26908;SDS011;14477;51.038;4.588;2023-05-07T05:24:33;4.07;;;3.07;;
26908;SDS011;14477;51.038;4.588;2023-05-07T05:26:59;4.55;;;3.03;;
26908;SDS011;14477;51.038;4.588;2023-05-07T05:29:27;5.07;;;3.13;;
26908;SDS011;14477;51.038;4.588;2023-05-07T05:31:53;4.65;;;3.03;;
26908;SDS011;14477;51.038;4.588;2023-05-07T05:34:19;3.73;;;3.07;;
26908;SDS011;14477;51.038;4.588;2023-05-07T05:36:45;4.75;;;3.13;;
26908;SDS011;14477;51.038;4.588;2023-05-07T05:39:11;4.13;;;3.17;;
26908;SDS011;14477;51.038;4.588;2023-05-07T05:41:37;4.45;;;3.03;;
26908;SDS011;14477;51.038;4.588;2023-05-07T05:44:03;4.30;;;3.00;;
26908;SDS011;14477;51.038;4.588;2023-05-07T05:46:29;4.20;;;3.22;;
26908;SDS011;14477;51.038;4.588;2023-05-07T05:48:55;4.27;;;3.20;;
26908;SDS011;14477;51.038;4.588;2023-05-07T05:51:21;5.35;;;3.63;;
26908;SDS011;14477;51.038;4.588;2023-05-07T05:53:47;5.05;;;3.20;;
26908;SDS011;14477;51.038;4.588;2023-05-07T05:56:12;4.53;;;3.40;;
26908;SDS011;14477;51.038;4.588;2023-05-07T05:58:38;3.80;;;2.88;;
26908;SDS011;14477;51.038;4.588;2023-05-07T06:01:04;3.85;;;3.10;;
26908;SDS011;14477;51.038;4.588;2023-05-07T06:03:30;4.07;;;3.10;;
26908;SDS011;14477;51.038;4.588;2023-05-07T06:05:57;3.92;;;3.08;;
26908;SDS011;14477;51.038;4.588;2023-05-07T06:08:25;4.20;;;3.40;;
26908;SDS011;14477;51.038;4.588;2023-05-07T06:10:58;4.57;;;3.35;;
26908;SDS011;14477;51.038;4.588;2023-05-07T06:13:24;3.80;;;3.00;;
26908;SDS011;14477;51.038;4.588;2023-05-07T06:15:50;4.05;;;3.03;;
26908;SDS011;14477;51.038;4.588;2023-05-07T06:18:16;4.40;;;3.00;;
26908;SDS011;14477;51.038;4.588;2023-05-07T06:20:41;4.78;;;3.33;;
26908;SDS011;14477;51.038;4.588;2023-05-07T06:23:07;4.50;;;3.03;;
26908;SDS011;14477;51.038;4.588;2023-05-07T06:25:33;4.17;;;2.90;;
26908;SDS011;14477;51.038;4.588;2023-05-07T06:27:58;4.07;;;3.20;;
26908;SDS011;14477;51.038;4.588;2023-05-07T06:30:24;4.67;;;3.57;;
26908;SDS011;14477;51.038;4.588;2023-05-07T06:32:50;4.40;;;3.40;;
26908;SDS011;14477;51.038;4.588;2023-05-07T06:35:16;5.45;;;3.45;;
26908;SDS011;14477;51.038;4.588;2023-05-07T06:37:41;3.53;;;2.93;;
26908;SDS011;14477;51.038;4.588;2023-05-07T06:40:08;4.68;;;3.33;;
26908;SDS011;14477;51.038;4.588;2023-05-07T06:42:35;4.20;;;3.38;;
26908;SDS011;14477;51.038;4.588;2023-05-07T06:45:01;5.28;;;3.50;;
26908;SDS011;14477;51.038;4.588;2023-05-07T06:47:27;4.43;;;3.50;;
26908;SDS011;14477;51.038;4.588;2023-05-07T06:49:53;4.78;;;3.75;;
26908;SDS011;14477;51.038;4.588;2023-05-07T06:52:19;4.20;;;3.53;;
26908;SDS011;14477;51.038;4.588;2023-05-07T06:54:45;4.80;;;3.70;;
26908;SDS011;14477;51.038;4.588;2023-05-07T06:57:11;5.07;;;3.60;;
26908;SDS011;14477;51.038;4.588;2023-05-07T06:59:37;4.53;;;3.70;;
26908;SDS011;14477;51.038;4.588;2023-05-07T07:02:02;5.03;;;3.57;;
26908;SDS011;14477;51.038;4.588;2023-05-07T07:04:28;4.87;;;3.63;;
26908;SDS011;14477;51.038;4.588;2023-05-07T07:06:54;5.57;;;3.63;;
26908;SDS011;14477;51.038;4.588;2023-05-07T07:09:19;4.57;;;3.78;;
26908;SDS011;14477;51.038;4.588;2023-05-07T07:11:45;4.73;;;3.33;;
26908;SDS011;14477;51.038;4.588;2023-05-07T07:14:11;5.78;;;3.50;;
26908;SDS011;14477;51.038;4.588;2023-05-07T07:16:37;4.23;;;3.40;;
26908;SDS011;14477;51.038;4.588;2023-05-07T07:19:03;5.05;;;3.70;;
26908;SDS011;14477;51.038;4.588;2023-05-07T07:21:28;5.38;;;3.60;;
26908;SDS011;14477;51.038;4.588;2023-05-07T07:23:55;5.00;;;3.20;;
26908;SDS011;14477;51.038;4.588;2023-05-07T07:26:21;5.32;;;3.70;;
26908;SDS011;14477;51.038;4.588;2023-05-07T07:28:47;5.35;;;3.65;;
26908;SDS011;14477;51.038;4.588;2023-05-07T07:31:13;6.03;;;3.70;;
26908;SDS011;14477;51.038;4.588;2023-05-07T07:33:39;4.93;;;3.03;;
26908;SDS011;14477;51.038;4.588;2023-05-07T07:36:05;4.85;;;3.50;;
26908;SDS011;14477;51.038;4.588;2023-05-07T07:38:31;4.95;;;3.30;;
26908;SDS011;14477;51.038;4.588;2023-05-07T07:40:57;5.90;;;3.33;;
26908;SDS011;14477;51.038;4.588;2023-05-07T07:43:23;5.32;;;3.33;;
26908;SDS011;14477;51.038;4.588;2023-05-07T07:45:49;4.70;;;3.30;;
26908;SDS011;14477;51.038;4.588;2023-05-07T07:48:15;5.40;;;2.88;;
26908;SDS011;14477;51.038;4.588;2023-05-07T07:50:40;4.63;;;2.78;;
26908;SDS011;14477;51.038;4.588;2023-05-07T07:53:06;5.03;;;2.90;;
26908;SDS011;14477;51.038;4.588;2023-05-07T07:55:37;3.88;;;3.00;;
26908;SDS011;14477;51.038;4.588;2023-05-07T07:58:04;5.43;;;2.83;;
26908;SDS011;14477;51.038;4.588;2023-05-07T08:00:30;5.20;;;2.90;;
26908;SDS011;14477;51.038;4.588;2023-05-07T08:02:56;3.97;;;2.43;;
26908;SDS011;14477;51.038;4.588;2023-05-07T08:05:22;4.25;;;2.58;;
26908;SDS011;14477;51.038;4.588;2023-05-07T08:07:48;6.30;;;2.80;;
26908;SDS011;14477;51.038;4.588;2023-05-07T08:10:18;4.22;;;2.45;;
26908;SDS011;14477;51.038;4.588;2023-05-07T08:12:50;4.82;;;2.67;;
26908;SDS011;14477;51.038;4.588;2023-05-07T08:15:16;4.50;;;2.50;;
26908;SDS011;14477;51.038;4.588;2023-05-07T08:17:42;3.60;;;2.40;;
26908;SDS011;14477;51.038;4.588;2023-05-07T08:20:08;4.27;;;2.20;;
26908;SDS011;14477;51.038;4.588;2023-05-07T08:22:35;4.30;;;2.60;;
26908;SDS011;14477;51.038;4.588;2023-05-07T08:25:01;4.15;;;2.50;;
26908;SDS011;14477;51.038;4.588;2023-05-07T08:27:27;5.07;;;2.50;;
26908;SDS011;14477;51.038;4.588;2023-05-07T08:29:53;5.10;;;2.57;;
26908;SDS011;14477;51.038;4.588;2023-05-07T08:32:19;4.05;;;2.50;;
26908;SDS011;14477;51.038;4.588;2023-05-07T08:34:45;3.72;;;2.40;;
26908;SDS011;14477;51.038;4.588;2023-05-07T08:37:11;4.10;;;2.40;;
26908;SDS011;14477;51.038;4.588;2023-05-07T08:39:37;5.32;;;2.40;;
26908;SDS011;14477;51.038;4.588;2023-05-07T08:42:03;4.03;;;2.50;;
26908;SDS011;14477;51.038;4.588;2023-05-07T08:44:33;3.78;;;2.38;;
26908;SDS011;14477;51.038;4.588;2023-05-07T08:47:00;4.32;;;2.50;;
26908;SDS011;14477;51.038;4.588;2023-05-07T08:49:27;4.15;;;2.45;;
26908;SDS011;14477;51.038;4.588;2023-05-07T08:51:54;4.57;;;2.40;;
26908;SDS011;14477;51.038;4.588;2023-05-07T08:54:21;4.78;;;2.70;;
26908;SDS011;14477;51.038;4.588;2023-05-07T08:56:47;3.95;;;2.33;;
26908;SDS011;14477;51.038;4.588;2023-05-07T08:59:13;4.20;;;2.28;;
26908;SDS011;14477;51.038;4.588;2023-05-07T09:01:38;3.53;;;1.90;;
26908;SDS011;14477;51.038;4.588;2023-05-07T09:04:04;3.85;;;2.00;;
26908;SDS011;14477;51.038;4.588;2023-05-07T09:06:31;3.20;;;1.80;;
26908;SDS011;14477;51.038;4.588;2023-05-07T09:08:58;3.63;;;1.85;;
26908;SDS011;14477;51.038;4.588;2023-05-07T09:11:26;3.07;;;2.00;;
26908;SDS011;14477;51.038;4.588;2023-05-07T09:13:55;3.13;;;1.98;;
26908;SDS011;14477;51.038;4.588;2023-05-07T09:16:27;3.17;;;1.92;;
26908;SDS011;14477;51.038;4.588;2023-05-07T09:18:57;3.45;;;1.77;;
26908;SDS011;14477;51.038;4.588;2023-05-07T09:21:25;2.30;;;1.60;;
26908;SDS011;14477;51.038;4.588;2023-05-07T09:23:52;3.83;;;1.80;;
26908;SDS011;14477;51.038;4.588;2023-05-07T09:26:21;3.75;;;1.63;;
26908;SDS011;14477;51.038;4.588;2023-05-07T09:28:47;3.00;;;2.00;;
26908;SDS011;14477;51.038;4.588;2023-05-07T09:31:13;3.70;;;1.93;;
26908;SDS011;14477;51.038;4.588;2023-05-07T09:33:39;2.80;;;1.83;;
26908;SDS011;14477;51.038;4.588;2023-05-07T09:36:05;3.60;;;2.00;;
26908;SDS011;14477;51.038;4.588;2023-05-07T09:38:33;2.72;;;1.65;;
26908;SDS011;14477;51.038;4.588;2023-05-07T09:41:03;2.80;;;1.73;;
26908;SDS011;14477;51.038;4.588;2023-05-07T09:43:39;2.38;;;1.80;;
26908;SDS011;14477;51.038;4.588;2023-05-07T09:46:11;3.67;;;1.73;;
26908;SDS011;14477;51.038;4.588;2023-05-07T09:48:38;3.42;;;1.60;;
26908;SDS011;14477;51.038;4.588;2023-05-07T09:51:11;3.00;;;1.80;;
26908;SDS011;14477;51.038;4.588;2023-05-07T09:53:54;3.37;;;1.90;;
26908;SDS011;14477;51.038;4.588;2023-05-07T09:56:21;3.28;;;1.90;;
26908;SDS011;14477;51.038;4.588;2023-05-07T09:58:49;2.75;;;1.80;;
26908;SDS011;14477;51.038;4.588;2023-05-07T10:01:17;3.17;;;1.83;;
26908;SDS011;14477;51.038;4.588;2023-05-07T10:03:46;3.38;;;1.90;;
26908;SDS011;14477;51.038;4.588;2023-05-07T10:06:15;3.57;;;1.70;;
26908;SDS011;14477;51.038;4.588;2023-05-07T10:08:40;4.20;;;1.80;;
26908;SDS011;14477;51.038;4.588;2023-05-07T10:11:08;3.40;;;1.90;;
26908;SDS011;14477;51.038;4.588;2023-05-07T10:13:35;3.28;;;1.60;;
26908;SDS011;14477;51.038;4.588;2023-05-07T10:16:05;2.90;;;1.97;;
26908;SDS011;14477;51.038;4.588;2023-05-07T10:18:31;3.53;;;2.00;;
26908;SDS011;14477;51.038;4.588;2023-05-07T10:21:02;4.40;;;2.10;;
26908;SDS011;14477;51.038;4.588;2023-05-07T10:23:33;3.90;;;2.25;;
26908;SDS011;14477;51.038;4.588;2023-05-07T10:26:00;3.55;;;2.08;;
26908;SDS011;14477;51.038;4.588;2023-05-07T10:28:28;2.87;;;2.00;;
26908;SDS011;14477;51.038;4.588;2023-05-07T10:33:31;2.83;;;1.70;;
26908;SDS011;14477;51.038;4.588;2023-05-07T10:36:00;3.50;;;1.77;;
26908;SDS011;14477;51.038;4.588;2023-05-07T10:38:29;4.55;;;2.15;;
26908;SDS011;14477;51.038;4.588;2023-05-07T10:40:56;3.90;;;2.20;;
26908;SDS011;14477;51.038;4.588;2023-05-07T10:43:22;3.28;;;2.08;;
26908;SDS011;14477;51.038;4.588;2023-05-07T10:51:28;3.03;;;1.77;;
26908;SDS011;14477;51.038;4.588;2023-05-07T10:56:37;3.65;;;1.50;;
26908;SDS011;14477;51.038;4.588;2023-05-07T11:04:28;3.53;;;1.70;;
26908;SDS011;14477;51.038;4.588;2023-05-07T11:15:07;3.60;;;1.90;;
26908;SDS011;14477;51.038;4.588;2023-05-07T11:17:34;2.73;;;1.70;;
26908;SDS011;14477;51.038;4.588;2023-05-07T11:20:17;2.33;;;1.67;;
26908;SDS011;14477;51.038;4.588;2023-05-07T11:22:43;3.05;;;1.88;;
26908;SDS011;14477;51.038;4.588;2023-05-07T11:25:09;2.47;;;1.75;;
26908;SDS011;14477;51.038;4.588;2023-05-07T11:27:36;2.77;;;1.60;;
26908;SDS011;14477;51.038;4.588;2023-05-07T11:30:01;2.72;;;1.48;;
26908;SDS011;14477;51.038;4.588;2023-05-07T11:32:28;2.50;;;1.60;;
26908;SDS011;14477;51.038;4.588;2023-05-07T11:34:56;3.35;;;1.60;;
26908;SDS011;14477;51.038;4.588;2023-05-07T11:37:25;3.27;;;1.50;;
26908;SDS011;14477;51.038;4.588;2023-05-07T11:40:03;4.05;;;1.55;;
26908;SDS011;14477;51.038;4.588;2023-05-07T11:42:36;2.83;;;1.50;;
26908;SDS011;14477;51.038;4.588;2023-05-07T11:45:04;3.08;;;1.50;;
26908;SDS011;14477;51.038;4.588;2023-05-07T11:47:31;3.88;;;1.70;;
26908;SDS011;14477;51.038;4.588;2023-05-07T11:50:01;2.37;;;1.60;;
26908;SDS011;14477;51.038;4.588;2023-05-07T11:52:29;2.97;;;1.70;;
26908;SDS011;14477;51.038;4.588;2023-05-07T11:54:56;2.55;;;1.52;;
26908;SDS011;14477;51.038;4.588;2023-05-07T11:57:26;2.40;;;1.40;;
26908;SDS011;14477;51.038;4.588;2023-05-07T11:59:59;2.20;;;1.70;;
26908;SDS011;14477;51.038;4.588;2023-05-07T12:02:27;2.03;;;1.30;;
26908;SDS011;14477;51.038;4.588;2023-05-07T12:04:53;3.08;;;1.38;;
26908;SDS011;14477;51.038;4.588;2023-05-07T12:07:20;4.15;;;1.80;;
26908;SDS011;14477;51.038;4.588;2023-05-07T12:09:46;2.47;;;1.30;;
26908;SDS011;14477;51.038;4.588;2023-05-07T12:12:13;2.08;;;1.20;;
26908;SDS011;14477;51.038;4.588;2023-05-07T12:14:42;2.40;;;1.13;;
26908;SDS011;14477;51.038;4.588;2023-05-07T12:17:11;3.20;;;1.40;;
26908;SDS011;14477;51.038;4.588;2023-05-07T12:19:39;1.83;;;1.23;;
26908;SDS011;14477;51.038;4.588;2023-05-07T12:22:09;4.07;;;1.50;;
26908;SDS011;14477;51.038;4.588;2023-05-07T12:25:08;2.10;;;1.40;;
26908;SDS011;14477;51.038;4.588;2023-05-07T12:27:28;2.53;;;1.30;;
26908;SDS011;14477;51.038;4.588;2023-05-07T12:29:53;2.92;;;1.30;;
26908;SDS011;14477;51.038;4.588;2023-05-07T12:32:20;2.17;;;1.40;;
26908;SDS011;14477;51.038;4.588;2023-05-07T12:34:46;2.50;;;1.30;;
26908;SDS011;14477;51.038;4.588;2023-05-07T12:37:16;2.22;;;1.33;;
26908;SDS011;14477;51.038;4.588;2023-05-07T12:39:48;2.10;;;1.20;;
26908;SDS011;14477;51.038;4.588;2023-05-07T12:42:15;2.03;;;1.20;;
26908;SDS011;14477;51.038;4.588;2023-05-07T12:44:41;1.40;;;1.10;;
26908;SDS011;14477;51.038;4.588;2023-05-07T12:47:11;2.50;;;1.20;;
26908;SDS011;14477;51.038;4.588;2023-05-07T12:49:38;1.63;;;1.20;;
26908;SDS011;14477;51.038;4.588;2023-05-07T12:52:05;2.05;;;1.10;;
26908;SDS011;14477;51.038;4.588;2023-05-07T12:54:35;1.63;;;1.10;;
26908;SDS011;14477;51.038;4.588;2023-05-07T12:57:06;2.13;;;1.13;;
26908;SDS011;14477;51.038;4.588;2023-05-07T12:59:35;1.45;;;0.90;;
26908;SDS011;14477;51.038;4.588;2023-05-07T13:02:03;2.15;;;1.00;;
26908;SDS011;14477;51.038;4.588;2023-05-07T13:04:30;2.10;;;1.23;;
26908;SDS011;14477;51.038;4.588;2023-05-07T13:06:56;2.05;;;1.10;;
26908;SDS011;14477;51.038;4.588;2023-05-07T13:09:21;2.33;;;1.30;;
26908;SDS011;14477;51.038;4.588;2023-05-07T13:11:47;2.22;;;1.23;;
26908;SDS011;14477;51.038;4.588;2023-05-07T13:14:13;2.00;;;1.20;;
26908;SDS011;14477;51.038;4.588;2023-05-07T13:16:40;1.70;;;1.20;;
26908;SDS011;14477;51.038;4.588;2023-05-07T13:19:06;1.77;;;1.02;;
26908;SDS011;14477;51.038;4.588;2023-05-07T13:21:31;3.13;;;1.40;;
26908;SDS011;14477;51.038;4.588;2023-05-07T13:23:58;2.03;;;1.30;;
26908;SDS011;14477;51.038;4.588;2023-05-07T13:26:24;2.63;;;1.33;;
26908;SDS011;14477;51.038;4.588;2023-05-07T13:28:50;1.55;;;1.17;;
26908;SDS011;14477;51.038;4.588;2023-05-07T13:31:17;1.50;;;1.20;;
26908;SDS011;14477;51.038;4.588;2023-05-07T13:33:43;1.57;;;1.13;;
26908;SDS011;14477;51.038;4.588;2023-05-07T13:36:08;2.67;;;1.13;;
26908;SDS011;14477;51.038;4.588;2023-05-07T13:38:34;1.52;;;1.10;;
26908;SDS011;14477;51.038;4.588;2023-05-07T13:41:00;1.73;;;1.00;;
26908;SDS011;14477;51.038;4.588;2023-05-07T13:43:26;1.55;;;0.93;;
26908;SDS011;14477;51.038;4.588;2023-05-07T13:45:52;2.77;;;1.20;;
26908;SDS011;14477;51.038;4.588;2023-05-07T13:48:17;1.60;;;1.20;;
26908;SDS011;14477;51.038;4.588;2023-05-07T13:50:43;2.17;;;1.30;;
26908;SDS011;14477;51.038;4.588;2023-05-07T13:53:09;3.33;;;1.10;;
26908;SDS011;14477;51.038;4.588;2023-05-07T13:55:35;1.77;;;1.10;;
26908;SDS011;14477;51.038;4.588;2023-05-07T13:58:01;2.13;;;1.10;;
26908;SDS011;14477;51.038;4.588;2023-05-07T14:00:28;2.60;;;1.17;;
26908;SDS011;14477;51.038;4.588;2023-05-07T14:02:55;1.38;;;1.10;;
26908;SDS011;14477;51.038;4.588;2023-05-07T14:05:22;2.40;;;1.38;;
26908;SDS011;14477;51.038;4.588;2023-05-07T14:07:53;1.80;;;1.10;;
26908;SDS011;14477;51.038;4.588;2023-05-07T14:10:20;1.45;;;1.23;;
26908;SDS011;14477;51.038;4.588;2023-05-07T14:12:46;2.55;;;1.20;;
26908;SDS011;14477;51.038;4.588;2023-05-07T14:15:11;3.73;;;1.40;;
26908;SDS011;14477;51.038;4.588;2023-05-07T14:17:37;1.20;;;1.10;;
26908;SDS011;14477;51.038;4.588;2023-05-07T14:20:03;2.90;;;1.20;;
26908;SDS011;14477;51.038;4.588;2023-05-07T14:22:31;1.92;;;1.30;;
26908;SDS011;14477;51.038;4.588;2023-05-07T14:24:57;2.55;;;1.27;;
26908;SDS011;14477;51.038;4.588;2023-05-07T14:27:22;2.07;;;1.40;;
26908;SDS011;14477;51.038;4.588;2023-05-07T14:29:48;2.35;;;1.40;;
26908;SDS011;14477;51.038;4.588;2023-05-07T14:32:16;2.17;;;1.20;;
26908;SDS011;14477;51.038;4.588;2023-05-07T14:34:43;2.15;;;1.23;;
26908;SDS011;14477;51.038;4.588;2023-05-07T14:37:09;2.22;;;1.40;;
26908;SDS011;14477;51.038;4.588;2023-05-07T14:39:35;1.50;;;1.20;;
26908;SDS011;14477;51.038;4.588;2023-05-07T14:42:01;3.20;;;1.50;;
26908;SDS011;14477;51.038;4.588;2023-05-07T14:44:27;1.92;;;1.30;;
26908;SDS011;14477;51.038;4.588;2023-05-07T14:46:53;2.97;;;1.40;;
26908;SDS011;14477;51.038;4.588;2023-05-07T14:49:19;1.95;;;1.17;;
26908;SDS011;14477;51.038;4.588;2023-05-07T14:51:45;3.28;;;1.40;;
26908;SDS011;14477;51.038;4.588;2023-05-07T14:54:12;2.42;;;1.13;;
26908;SDS011;14477;51.038;4.588;2023-05-07T14:56:39;1.67;;;1.23;;
26908;SDS011;14477;51.038;4.588;2023-05-07T14:59:06;2.73;;;1.53;;
26908;SDS011;14477;51.038;4.588;2023-05-07T15:01:34;2.85;;;1.60;;
26908;SDS011;14477;51.038;4.588;2023-05-07T15:04:02;2.63;;;1.42;;
26908;SDS011;14477;51.038;4.588;2023-05-07T15:06:28;2.83;;;1.42;;
26908;SDS011;14477;51.038;4.588;2023-05-07T15:08:54;2.88;;;1.55;;
26908;SDS011;14477;51.038;4.588;2023-05-07T15:11:20;1.50;;;1.30;;